Time;durP1;ratioP1;P1;durP2;ratioP2;P2;SDS_P1;SDS_P2;PMS_P1;PMS_P2;Temp;Humidity;BMP_temperature;BMP_pressure;BME280_temperature;BME280_humidity;BME280_pressure;Samples;Min_cycle;Max_cycle;Signal;HPM_P1;HPM_P2
2023/02/25 00:00:18;;;;;;;2.27;1.20;;;;;;;;;;5009390;28;20425;-75
2023/02/25 00:02:51;;;;;;;3.57;1.07;;;;;;;;;;5009677;28;20454;-73
2023/02/25 00:05:17;;;;;;;1.63;1.10;;;;;;;;;;5010813;28;20124;-74
2023/02/25 00:07:43;;;;;;;1.27;1.17;;;;;;;;;;5009520;28;20367;-73
2023/02/25 00:10:11;;;;;;;1.10;1.00;;;;;;;;;;5009252;28;20454;-73
2023/02/25 00:12:37;;;;;;;2.33;0.87;;;;;;;;;;5010884;28;20026;-74
2023/02/25 00:15:05;;;;;;;1.57;1.37;;;;;;;;;;5024963;28;20092;-74
2023/02/25 00:17:31;;;;;;;1.10;1.00;;;;;;;;;;5009342;28;20037;-75
2023/02/25 00:19:57;;;;;;;2.93;1.57;;;;;;;;;;4993324;28;20034;-73
2023/02/25 00:22:23;;;;;;;2.13;1.30;;;;;;;;;;5011048;28;20029;-75
2023/02/25 00:24:52;;;;;;;2.50;1.00;;;;;;;;;;5026201;28;20076;-73
2023/02/25 00:27:18;;;;;;;1.20;0.83;;;;;;;;;;5010705;28;20014;-73
2023/02/25 00:29:44;;;;;;;1.77;1.23;;;;;;;;;;5025885;28;20099;-73
2023/02/25 00:32:09;;;;;;;2.67;1.03;;;;;;;;;;5010935;28;20056;-72
2023/02/25 00:34:35;;;;;;;1.43;0.87;;;;;;;;;;5009580;28;20029;-74
2023/02/25 00:37:01;;;;;;;2.03;1.10;;;;;;;;;;5010985;28;20084;-75
2023/02/25 00:39:41;;;;;;;1.70;1.20;;;;;;;;;;4992348;28;20025;-74
2023/02/25 00:42:15;;;;;;;1.73;0.90;;;;;;;;;;5025360;28;20049;-74
2023/02/25 00:44:46;;;;;;;2.00;1.10;;;;;;;;;;5025321;28;20029;-74
2023/02/25 00:47:12;;;;;;;1.77;0.90;;;;;;;;;;5010347;28;20022;-74
2023/02/25 00:49:37;;;;;;;3.30;1.27;;;;;;;;;;5025590;28;20033;-74
2023/02/25 00:52:03;;;;;;;1.90;1.00;;;;;;;;;;5008909;28;20116;-74
2023/02/25 00:54:28;;;;;;;2.57;1.13;;;;;;;;;;5024885;28;20382;-73
2023/02/25 00:56:54;;;;;;;1.53;1.43;;;;;;;;;;5008813;28;20036;-74
2023/02/25 00:59:20;;;;;;;1.97;1.23;;;;;;;;;;5008369;28;20022;-73
2023/02/25 01:01:45;;;;;;;2.10;1.03;;;;;;;;;;5009941;28;20025;-73
2023/02/25 01:04:11;;;;;;;1.37;1.00;;;;;;;;;;5008368;28;20366;-73
2023/02/25 01:06:37;;;;;;;1.23;1.00;;;;;;;;;;5008622;28;20075;-73
2023/02/25 01:09:05;;;;;;;1.10;1.00;;;;;;;;;;5008743;28;20481;-73
2023/02/25 01:11:36;;;;;;;1.40;1.30;;;;;;;;;;4992485;28;20120;-74
2023/02/25 01:14:05;;;;;;;1.93;1.17;;;;;;;;;;5010744;28;20247;-73
2023/02/25 01:16:32;;;;;;;2.73;1.20;;;;;;;;;;5011880;28;20026;-74
2023/02/25 01:19:04;;;;;;;0.83;0.80;;;;;;;;;;5028149;28;20033;-75
2023/02/25 01:21:34;;;;;;;1.10;0.98;;;;;;;;;;5029842;28;20021;-74
2023/02/25 01:24:07;;;;;;;1.40;1.17;;;;;;;;;;5029745;28;20414;-73
2023/02/25 01:26:35;;;;;;;1.77;1.20;;;;;;;;;;5029346;28;20437;-74
2023/02/25 01:29:00;;;;;;;2.43;1.20;;;;;;;;;;5011334;28;20018;-74
2023/02/25 01:31:30;;;;;;;2.40;1.03;;;;;;;;;;5011459;28;20410;-74
2023/02/25 01:34:01;;;;;;;2.10;1.33;;;;;;;;;;5011668;28;20108;-74
2023/02/25 01:36:28;;;;;;;1.88;1.33;;;;;;;;;;4995142;28;20029;-74
2023/02/25 01:38:55;;;;;;;2.53;1.60;;;;;;;;;;5011620;28;20134;-74
2023/02/25 01:41:25;;;;;;;2.83;1.23;;;;;;;;;;5011392;28;20457;-74
2023/02/25 01:44:17;;;;;;;3.10;1.47;;;;;;;;;;5011896;28;20061;-74
2023/02/25 01:46:55;;;;;;;2.08;0.95;;;;;;;;;;5012089;28;20033;-74
2023/02/25 01:49:28;;;;;;;2.20;1.40;;;;;;;;;;5009520;28;20094;-73
2023/02/25 01:52:03;;;;;;;2.37;1.53;;;;;;;;;;5033843;28;20112;-73
2023/02/25 01:54:29;;;;;;;2.50;1.80;;;;;;;;;;5015809;28;20025;-73
2023/02/25 01:56:56;;;;;;;3.30;1.30;;;;;;;;;;5031345;28;20473;-74
2023/02/25 01:59:25;;;;;;;1.73;1.60;;;;;;;;;;5031527;28;20045;-73
2023/02/25 02:01:51;;;;;;;4.87;1.80;;;;;;;;;;5016323;28;20027;-73
2023/02/25 02:04:18;;;;;;;2.13;1.40;;;;;;;;;;5033620;28;20384;-73
2023/02/25 02:06:46;;;;;;;3.00;1.70;;;;;;;;;;5014960;28;20028;-74
2023/02/25 02:09:16;;;;;;;1.60;1.50;;;;;;;;;;5030525;28;20432;-75
2023/02/25 02:11:42;;;;;;;2.23;1.37;;;;;;;;;;5031004;28;20033;-74
2023/02/25 02:14:13;;;;;;;2.57;1.57;;;;;;;;;;5029454;28;20057;-74
2023/02/25 02:16:57;;;;;;;2.90;1.77;;;;;;;;;;5028060;28;20041;-74
2023/02/25 02:19:41;;;;;;;2.93;1.50;;;;;;;;;;5032568;28;20033;-74
2023/02/25 02:22:44;;;;;;;4.27;2.07;;;;;;;;;;5033320;28;20108;-74
2023/02/25 02:25:43;;;;;;;2.73;1.73;;;;;;;;;;5031526;28;20507;-74
2023/02/25 02:28:31;;;;;;;2.97;1.30;;;;;;;;;;5033002;28;20037;-74
2023/02/25 02:31:34;;;;;;;2.37;1.60;;;;;;;;;;5032939;28;20021;-74
2023/02/25 02:34:06;;;;;;;2.20;1.77;;;;;;;;;;5031859;28;20188;-74
2023/02/25 02:36:58;;;;;;;1.85;1.13;;;;;;;;;;5031431;28;20029;-74
2023/02/25 02:39:50;;;;;;;1.60;1.42;;;;;;;;;;5015504;28;20037;-74
2023/02/25 02:42:36;;;;;;;1.98;1.50;;;;;;;;;;5031696;28;20030;-73
2023/02/25 02:45:07;;;;;;;2.33;1.40;;;;;;;;;;5032940;28;20017;-74
2023/02/25 02:47:37;;;;;;;2.70;1.50;;;;;;;;;;5015036;28;20029;-74
2023/02/25 02:50:14;;;;;;;3.03;1.40;;;;;;;;;;5015806;28;20032;-74
2023/02/25 02:52:44;;;;;;;2.67;1.50;;;;;;;;;;5034558;28;20125;-74
2023/02/25 02:55:29;;;;;;;3.37;1.83;;;;;;;;;;5035668;28;20056;-74
2023/02/25 02:58:05;;;;;;;2.80;2.23;;;;;;;;;;5020077;28;20089;-73
2023/02/25 03:00:38;;;;;;;1.97;1.67;;;;;;;;;;5020167;28;20032;-73
2023/02/25 03:03:08;;;;;;;2.23;1.60;;;;;;;;;;5019197;28;20033;-73
2023/02/25 03:05:37;;;;;;;4.63;1.50;;;;;;;;;;5016666;28;20029;-73
2023/02/25 03:08:30;;;;;;;4.67;1.57;;;;;;;;;;5014689;28;20032;-73
2023/02/25 03:10:55;;;;;;;3.47;2.10;;;;;;;;;;5011332;28;20401;-73
2023/02/25 03:13:21;;;;;;;4.00;1.90;;;;;;;;;;5013830;28;20025;-73
2023/02/25 03:15:48;;;;;;;2.13;1.67;;;;;;;;;;5013986;28;20167;-72
2023/02/25 03:18:28;;;;;;;2.40;1.50;;;;;;;;;;5029967;28;20036;-74
2023/02/25 03:20:56;;;;;;;3.43;1.57;;;;;;;;;;5013770;28;20124;-73
2023/02/25 03:23:32;;;;;;;2.27;1.60;;;;;;;;;;5031263;28;20029;-73
2023/02/25 03:26:11;;;;;;;6.53;1.77;;;;;;;;;;4997115;28;20037;-74
2023/02/25 03:28:37;;;;;;;3.00;2.10;;;;;;;;;;5028778;28;20024;-73
2023/02/25 03:31:24;;;;;;;2.43;1.67;;;;;;;;;;5031478;28;20033;-74
2023/02/25 03:34:02;;;;;;;1.80;1.17;;;;;;;;;;5031991;28;20108;-73
2023/02/25 03:36:32;;;;;;;2.80;1.50;;;;;;;;;;5013163;28;20026;-73
2023/02/25 03:39:03;;;;;;;2.87;1.37;;;;;;;;;;5031407;28;20021;-73
2023/02/25 03:41:34;;;;;;;2.17;1.10;;;;;;;;;;5031175;28;20533;-73
2023/02/25 03:44:03;;;;;;;0.93;0.93;;;;;;;;;;5013463;28;20469;-73
2023/02/25 03:46:31;;;;;;;1.43;0.90;;;;;;;;;;5030020;28;20041;-73
2023/02/25 03:48:59;;;;;;;1.00;0.63;;;;;;;;;;5013740;28;20532;-73
2023/02/25 03:51:30;;;;;;;3.47;1.17;;;;;;;;;;5029809;28;20065;-73
2023/02/25 03:53:56;;;;;;;2.25;1.10;;;;;;;;;;5013752;28;20081;-73
2023/02/25 03:56:21;;;;;;;2.93;0.73;;;;;;;;;;5029616;28;20804;-74
2023/02/25 03:58:47;;;;;;;3.13;0.80;;;;;;;;;;5031037;28;20094;-74
2023/02/25 04:01:17;;;;;;;2.23;0.90;;;;;;;;;;5013516;28;20032;-73
2023/02/25 04:03:42;;;;;;;0.83;0.60;;;;;;;;;;5031126;28;20739;-73
2023/02/25 04:06:11;;;;;;;1.83;1.03;;;;;;;;;;5030916;28;20096;-74
2023/02/25 04:08:36;;;;;;;5.47;1.60;;;;;;;;;;5029578;28;20037;-73
2023/02/25 04:11:02;;;;;;;3.77;0.90;;;;;;;;;;5013168;28;20440;-74
2023/02/25 04:13:28;;;;;;;1.03;0.80;;;;;;;;;;5031417;28;20083;-73
2023/02/25 04:15:54;;;;;;;3.47;1.30;;;;;;;;;;5013542;28;20152;-73
2023/02/25 04:18:20;;;;;;;3.63;0.90;;;;;;;;;;5030017;28;20486;-74
2023/02/25 04:20:45;;;;;;;1.63;0.70;;;;;;;;;;5031785;28;20469;-74
2023/02/25 04:23:13;;;;;;;2.57;0.67;;;;;;;;;;5031856;28;20061;-73
2023/02/25 04:25:39;;;;;;;3.40;0.73;;;;;;;;;;5012493;28;20033;-72
2023/02/25 04:28:04;;;;;;;4.33;0.90;;;;;;;;;;5012926;28;20071;-73
2023/02/25 04:30:30;;;;;;;1.60;0.93;;;;;;;;;;5030112;28;20029;-72
2023/02/25 04:32:55;;;;;;;6.20;0.97;;;;;;;;;;5030560;28;20029;-73
2023/02/25 04:35:22;;;;;;;1.60;0.97;;;;;;;;;;5012654;28;20349;-74
2023/02/25 04:37:48;;;;;;;1.13;1.00;;;;;;;;;;5030314;28;20499;-73
2023/02/25 04:40:18;;;;;;;1.93;0.93;;;;;;;;;;5011968;28;20104;-73
2023/02/25 04:42:44;;;;;;;1.50;1.07;;;;;;;;;;5012155;28;20093;-74
2023/02/25 04:45:10;;;;;;;3.37;1.00;;;;;;;;;;5029850;28;20091;-73
2023/02/25 04:47:36;;;;;;;4.20;1.70;;;;;;;;;;5011777;28;20075;-74
2023/02/25 04:50:03;;;;;;;2.67;1.10;;;;;;;;;;5012255;28;20481;-73
2023/02/25 04:52:28;;;;;;;4.10;0.90;;;;;;;;;;5012233;28;20049;-74
2023/02/25 04:54:54;;;;;;;2.87;0.90;;;;;;;;;;5012393;28;20067;-74
2023/02/25 04:57:19;;;;;;;7.73;1.33;;;;;;;;;;5029507;28;20037;-74
2023/02/25 04:59:45;;;;;;;1.30;1.00;;;;;;;;;;5028450;28;20030;-73
2023/02/25 05:02:10;;;;;;;3.67;1.17;;;;;;;;;;5011822;28;20089;-74
2023/02/25 05:04:37;;;;;;;1.90;0.90;;;;;;;;;;5029689;28;20032;-74
2023/02/25 05:07:04;;;;;;;1.63;1.10;;;;;;;;;;5011927;28;20025;-73
2023/02/25 05:09:29;;;;;;;5.13;1.00;;;;;;;;;;5030296;28;20064;-74
2023/02/25 05:11:55;;;;;;;3.13;0.90;;;;;;;;;;5030362;28;20741;-75
2023/02/25 05:14:20;;;;;;;0.77;0.67;;;;;;;;;;5011423;28;20056;-72
2023/02/25 05:16:46;;;;;;;1.17;0.63;;;;;;;;;;5027963;28;20707;-73
2023/02/25 05:19:21;;;;;;;2.77;0.73;;;;;;;;;;5028990;28;20032;-73
2023/02/25 05:21:46;;;;;;;0.70;0.43;;;;;;;;;;5012336;28;20029;-74
2023/02/25 05:24:12;;;;;;;4.00;0.80;;;;;;;;;;5029702;28;20127;-72
2023/02/25 05:26:39;;;;;;;1.37;0.83;;;;;;;;;;5011588;28;20476;-74
2023/02/25 05:29:06;;;;;;;4.97;0.80;;;;;;;;;;5011549;28;20033;-73
2023/02/25 05:31:32;;;;;;;3.00;1.20;;;;;;;;;;5029469;28;20033;-73
2023/02/25 05:33:57;;;;;;;5.90;1.20;;;;;;;;;;5029455;28;20032;-73
2023/02/25 05:36:23;;;;;;;1.93;0.83;;;;;;;;;;5029157;28;20029;-74
2023/02/25 05:38:52;;;;;;;4.57;0.80;;;;;;;;;;5029224;28;20032;-74
2023/02/25 05:41:18;;;;;;;4.93;0.90;;;;;;;;;;4995148;28;20327;-72
2023/02/25 05:43:44;;;;;;;0.50;0.50;;;;;;;;;;5011341;28;20036;-73
2023/02/25 05:46:12;;;;;;;1.40;0.60;;;;;;;;;;5015700;28;20028;-73
2023/02/25 05:48:40;;;;;;;5.30;0.90;;;;;;;;;;4991639;28;20433;-73
2023/02/25 05:51:10;;;;;;;5.00;0.60;;;;;;;;;;5012931;28;20040;-73
2023/02/25 05:53:36;;;;;;;0.40;0.40;;;;;;;;;;5002541;28;20035;-73
2023/02/25 05:56:06;;;;;;;1.00;0.43;;;;;;;;;;5017935;28;20076;-74
2023/02/25 05:58:31;;;;;;;2.63;0.70;;;;;;;;;;5012061;28;20108;-73
2023/02/25 06:00:57;;;;;;;3.40;0.70;;;;;;;;;;5015748;28;20112;-73
2023/02/25 06:03:22;;;;;;;4.23;0.57;;;;;;;;;;5016883;28;20017;-73
2023/02/25 06:05:48;;;;;;;1.67;0.60;;;;;;;;;;5014537;28;20037;-73
2023/02/25 06:08:14;;;;;;;1.83;0.63;;;;;;;;;;5012020;28;20021;-73
2023/02/25 06:10:39;;;;;;;3.27;0.73;;;;;;;;;;4996150;28;20371;-73
2023/02/25 06:13:09;;;;;;;2.90;0.60;;;;;;;;;;5019635;28;20108;-73
2023/02/25 06:15:40;;;;;;;1.10;0.70;;;;;;;;;;5011952;28;20545;-73
2023/02/25 06:18:06;;;;;;;3.43;0.77;;;;;;;;;;5014453;28;20394;-73
2023/02/25 06:20:34;;;;;;;0.83;0.47;;;;;;;;;;5032489;28;20402;-73
2023/02/25 06:23:00;;;;;;;1.10;0.50;;;;;;;;;;5014971;28;20033;-73
2023/02/25 06:25:28;;;;;;;4.20;0.97;;;;;;;;;;5032333;28;20029;-73
2023/02/25 06:28:03;;;;;;;3.33;1.43;;;;;;;;;;5014724;28;20140;-75
2023/02/25 06:30:29;;;;;;;1.33;0.83;;;;;;;;;;5014931;28;20453;-73
2023/02/25 06:32:55;;;;;;;3.73;0.87;;;;;;;;;;5014920;28;20044;-74
2023/02/25 06:35:22;;;;;;;0.83;0.70;;;;;;;;;;5014781;28;20083;-74
2023/02/25 06:37:59;;;;;;;3.33;0.97;;;;;;;;;;5014622;28;20034;-74
2023/02/25 06:40:25;;;;;;;1.07;0.67;;;;;;;;;;5032471;28;20076;-73
2023/02/25 06:42:51;;;;;;;3.27;0.97;;;;;;;;;;5014733;28;20439;-74
2023/02/25 06:45:17;;;;;;;2.20;0.80;;;;;;;;;;5032620;28;20021;-72
2023/02/25 06:47:43;;;;;;;3.77;0.60;;;;;;;;;;5014765;28;20056;-75
2023/02/25 06:50:09;;;;;;;3.00;0.80;;;;;;;;;;5032582;28;20057;-75
2023/02/25 06:52:34;;;;;;;3.03;1.00;;;;;;;;;;5014374;28;20111;-74
2023/02/25 06:55:00;;;;;;;4.43;1.00;;;;;;;;;;5032059;28;20650;-74
2023/02/25 06:57:25;;;;;;;4.97;0.93;;;;;;;;;;5031686;28;20041;-73
2023/02/25 06:59:52;;;;;;;6.20;0.90;;;;;;;;;;5014079;28;20025;-74
2023/02/25 07:02:18;;;;;;;1.23;0.83;;;;;;;;;;5013803;28;20076;-74
2023/02/25 07:04:43;;;;;;;0.63;0.63;;;;;;;;;;5031854;28;20065;-74
2023/02/25 07:07:09;;;;;;;7.07;0.80;;;;;;;;;;5029984;28;20026;-73
2023/02/25 07:09:34;;;;;;;3.03;0.93;;;;;;;;;;5032313;28;20030;-73
2023/02/25 07:11:59;;;;;;;2.00;1.03;;;;;;;;;;5031777;28;20025;-74
2023/02/25 07:14:25;;;;;;;3.50;0.83;;;;;;;;;;5013879;28;20068;-74
2023/02/25 07:16:51;;;;;;;3.13;1.47;;;;;;;;;;5012944;28;20108;-74
2023/02/25 07:19:16;;;;;;;4.93;0.93;;;;;;;;;;5030629;28;20029;-74
2023/02/25 07:21:43;;;;;;;0.80;0.70;;;;;;;;;;5012724;28;20080;-73
2023/02/25 07:24:10;;;;;;;0.53;0.53;;;;;;;;;;5029677;28;20029;-74
2023/02/25 07:26:37;;;;;;;6.47;0.93;;;;;;;;;;5029242;28;20393;-74
2023/02/25 07:29:04;;;;;;;5.03;0.90;;;;;;;;;;5029374;28;20025;-73
2023/02/25 07:31:29;;;;;;;2.20;0.70;;;;;;;;;;5028836;28;20025;-74
2023/02/25 07:33:56;;;;;;;4.53;0.80;;;;;;;;;;5012508;28;20406;-74
2023/02/25 07:36:22;;;;;;;1.47;0.53;;;;;;;;;;5012538;28;20029;-74
2023/02/25 07:38:47;;;;;;;3.53;0.87;;;;;;;;;;5012559;28;20026;-73
2023/02/25 07:41:18;;;;;;;4.50;0.90;;;;;;;;;;5030253;28;20029;-73
2023/02/25 07:43:44;;;;;;;2.23;0.93;;;;;;;;;;5010646;28;20030;-73
2023/02/25 07:46:11;;;;;;;2.90;1.13;;;;;;;;;;5009321;28;20085;-74
2023/02/25 07:48:37;;;;;;;3.33;0.80;;;;;;;;;;5029860;28;20025;-73
2023/02/25 07:51:23;;;;;;;8.10;1.10;;;;;;;;;;5030539;28;20037;-73
2023/02/25 07:53:50;;;;;;;2.50;1.10;;;;;;;;;;5031124;28;20112;-74
2023/02/25 07:56:17;;;;;;;4.43;0.93;;;;;;;;;;5032988;28;20033;-76
2023/02/25 07:58:42;;;;;;;3.47;1.13;;;;;;;;;;5017570;28;20411;-76
2023/02/25 08:01:30;;;;;;;2.03;0.77;;;;;;;;;;5022308;28;20021;-77
2023/02/25 08:03:59;;;;;;;0.93;0.57;;;;;;;;;;5023418;28;20037;-76
2023/02/25 08:06:25;;;;;;;1.70;0.60;;;;;;;;;;5027668;28;20144;-76
2023/02/25 08:08:54;;;;;;;6.07;1.20;;;;;;;;;;5040691;28;20033;-75
2023/02/25 08:11:20;;;;;;;3.90;1.03;;;;;;;;;;5032559;28;20401;-77
2023/02/25 08:13:46;;;;;;;3.58;1.30;;;;;;;;;;4993706;28;1255711;-79
2023/02/25 08:16:16;;;;;;;3.90;0.83;;;;;;;;;;5032978;28;20064;-76
2023/02/25 08:18:42;;;;;;;2.70;1.20;;;;;;;;;;5012696;28;20037;-77
2023/02/25 08:21:09;;;;;;;1.60;0.90;;;;;;;;;;5030518;28;20363;-76
2023/02/25 08:23:35;;;;;;;3.83;0.80;;;;;;;;;;5030654;28;20112;-76
2023/02/25 08:26:00;;;;;;;2.70;1.10;;;;;;;;;;5012992;28;20124;-76
2023/02/25 08:28:30;;;;;;;3.57;0.93;;;;;;;;;;5031340;28;20029;-75
2023/02/25 08:30:56;;;;;;;4.77;1.03;;;;;;;;;;5013812;28;20433;-77
2023/02/25 08:33:22;;;;;;;1.73;0.83;;;;;;;;;;5012988;28;20055;-76
2023/02/25 08:35:49;;;;;;;4.60;1.87;;;;;;;;;;5031248;28;20032;-76
2023/02/25 08:38:15;;;;;;;1.10;0.80;;;;;;;;;;5012801;28;20033;-76
2023/02/25 08:40:41;;;;;;;2.40;1.00;;;;;;;;;;5012923;28;20504;-77
2023/02/25 08:43:09;;;;;;;2.53;0.97;;;;;;;;;;5013141;28;20037;-76
2023/02/25 08:45:37;;;;;;;2.20;1.10;;;;;;;;;;5012767;28;20034;-75
2023/02/25 08:48:03;;;;;;;2.67;1.13;;;;;;;;;;5012759;28;20429;-76
2023/02/25 08:50:29;;;;;;;1.93;1.13;;;;;;;;;;5012401;28;20513;-76
2023/02/25 08:52:54;;;;;;;12.47;1.60;;;;;;;;;;5030340;28;20098;-76
2023/02/25 08:55:23;;;;;;;3.80;1.70;;;;;;;;;;5029830;28;20033;-76
2023/02/25 08:57:49;;;;;;;2.17;1.10;;;;;;;;;;5028011;28;20030;-76
2023/02/25 09:00:15;;;;;;;3.90;1.63;;;;;;;;;;5028536;28;20100;-75
2023/02/25 09:02:41;;;;;;;3.13;1.10;;;;;;;;;;5029785;28;20029;-76
2023/02/25 09:05:08;;;;;;;1.33;0.90;;;;;;;;;;5012112;28;20464;-75
2023/02/25 09:07:35;;;;;;;4.60;1.40;;;;;;;;;;5029871;28;20036;-77
2023/02/25 09:10:03;;;;;;;1.33;0.97;;;;;;;;;;5029974;28;20030;-76
2023/02/25 09:12:29;;;;;;;2.00;0.97;;;;;;;;;;5029850;28;20409;-76
2023/02/25 09:14:55;;;;;;;1.23;0.80;;;;;;;;;;5027644;28;20045;-75
2023/02/25 09:17:20;;;;;;;1.70;0.83;;;;;;;;;;5012028;28;20450;-75
2023/02/25 09:19:46;;;;;;;3.13;1.40;;;;;;;;;;5030400;28;20033;-77
2023/02/25 09:22:11;;;;;;;1.63;0.90;;;;;;;;;;5029153;28;20036;-75
2023/02/25 09:24:37;;;;;;;3.80;1.03;;;;;;;;;;5012286;28;20116;-77
2023/02/25 09:27:06;;;;;;;2.80;0.80;;;;;;;;;;5027632;28;20025;-76
2023/02/25 09:29:40;;;;;;;2.90;0.80;;;;;;;;;;5028458;28;20033;-76
2023/02/25 09:32:14;;;;;;;1.40;0.93;;;;;;;;;;5029651;28;20033;-77
2023/02/25 09:34:40;;;;;;;4.00;1.13;;;;;;;;;;5011691;28;20053;-77
2023/02/25 09:37:05;;;;;;;2.10;1.00;;;;;;;;;;5029202;28;20065;-76
2023/02/25 09:39:31;;;;;;;1.80;1.00;;;;;;;;;;5029664;28;20033;-76
2023/02/25 09:42:02;;;;;;;1.90;1.20;;;;;;;;;;5044727;28;20029;-76
2023/02/25 09:44:56;;;;;;;1.50;0.90;;;;;;;;;;5044637;28;20044;-75
2023/02/25 09:47:45;;;;;;;1.07;0.60;;;;;;;;;;5026232;28;20543;-76
2023/02/25 09:50:17;;;;;;;3.20;0.77;;;;;;;;;;5011514;28;20052;-76
2023/02/25 09:53:07;;;;;;;0.85;0.60;;;;;;;;;;5011404;28;20032;-77
2023/02/25 09:55:38;;;;;;;1.77;1.03;;;;;;;;;;5029710;28;20025;-76
2023/02/25 09:58:24;;;;;;;0.55;0.50;;;;;;;;;;5029922;28;20033;-77
2023/02/25 10:01:04;;;;;;;0.73;0.67;;;;;;;;;;5012127;28;20041;-76
2023/02/25 10:03:49;;;;;;;3.20;0.87;;;;;;;;;;5029863;28;20037;-75
2023/02/25 10:06:42;;;;;;;3.10;0.70;;;;;;;;;;5013008;28;20025;-76
2023/02/25 10:09:28;;;;;;;1.07;0.83;;;;;;;;;;5015049;28;20112;-76
2023/02/25 10:11:56;;;;;;;1.50;0.83;;;;;;;;;;5011701;28;20022;-76
2023/02/25 10:14:28;;;;;;;2.90;1.00;;;;;;;;;;5007462;28;20105;-76
2023/02/25 10:17:24;;;;;;;0.73;0.50;;;;;;;;;;4968819;28;20118;-76
2023/02/25 10:20:17;;;;;;;1.33;0.70;;;;;;;;;;4989665;28;20272;-75
2023/02/25 10:22:42;;;;;;;;;;;;;;;;;;4983297;28;20037;-76
2023/02/25 10:25:27;;;;;;;5.53;0.97;;;;;;;;;;4968838;28;19982;-76
2023/02/25 10:28:03;;;;;;;1.63;0.80;;;;;;;;;;4974145;28;20033;-77
2023/02/25 10:30:32;;;;;;;2.03;0.70;;;;;;;;;;4986616;28;20086;-76
2023/02/25 10:33:04;;;;;;;1.47;0.73;;;;;;;;;;4971441;28;20026;-76
2023/02/25 10:35:33;;;;;;;2.47;0.60;;;;;;;;;;4968870;28;20754;-76
2023/02/25 10:37:58;;;;;;;1.83;0.90;;;;;;;;;;4975386;28;20030;-74
2023/02/25 10:40:28;;;;;;;1.63;0.80;;;;;;;;;;4974442;28;20049;-77
2023/02/25 10:42:57;;;;;;;1.40;0.83;;;;;;;;;;4974859;28;20058;-76
2023/02/25 10:45:27;;;;;;;5.70;0.70;;;;;;;;;;4973773;28;20030;-76
2023/02/25 10:48:17;;;;;;;0.97;0.87;;;;;;;;;;4975271;28;20034;-77
2023/02/25 10:51:10;;;;;;;2.33;1.17;;;;;;;;;;4992693;28;20034;-76
2023/02/25 10:53:38;;;;;;;1.80;0.83;;;;;;;;;;4981042;28;20089;-76
2023/02/25 10:56:04;;;;;;;5.37;1.77;;;;;;;;;;4981006;28;20027;-77
2023/02/25 10:58:43;;;;;;;5.00;2.50;;;;;;;;;;4987935;28;20475;-76
2023/02/25 11:01:21;;;;;;;7.20;1.10;;;;;;;;;;4993315;28;20022;-77
2023/02/25 11:03:53;;;;;;;0.67;0.67;;;;;;;;;;4984759;28;20034;-76
2023/02/25 11:06:35;;;;;;;0.73;0.73;;;;;;;;;;4993434;28;20109;-76
2023/02/25 11:09:23;;;;;;;0.93;0.93;;;;;;;;;;5007693;28;20106;-76
2023/02/25 11:11:52;;;;;;;0.73;0.73;;;;;;;;;;4993203;28;20084;-76
2023/02/25 11:14:18;;;;;;;0.70;0.70;;;;;;;;;;5001263;28;20057;-77
2023/02/25 11:16:45;;;;;;;3.67;0.97;;;;;;;;;;5014053;28;20033;-75
2023/02/25 11:19:19;;;;;;;0.70;0.60;;;;;;;;;;5031569;28;20033;-76
2023/02/25 11:21:45;;;;;;;2.13;0.83;;;;;;;;;;5031789;28;20076;-77
2023/02/25 11:24:22;;;;;;;3.90;1.10;;;;;;;;;;5014210;28;20037;-76
2023/02/25 11:26:50;;;;;;;3.97;1.33;;;;;;;;;;5030423;28;20025;-76
2023/02/25 11:29:23;;;;;;;1.10;0.70;;;;;;;;;;5013648;28;20117;-76
2023/02/25 11:31:58;;;;;;;1.70;0.80;;;;;;;;;;5031751;28;20021;-77
2023/02/25 11:34:27;;;;;;;0.80;0.80;;;;;;;;;;5030433;28;20030;-75
2023/02/25 11:36:52;;;;;;;1.27;0.97;;;;;;;;;;5013728;28;20179;-76
2023/02/25 11:39:24;;;;;;;1.33;1.23;;;;;;;;;;5031489;28;20466;-76
2023/02/25 11:42:23;;;;;;;1.60;0.82;;;;;;;;;;5031829;28;20101;-76
2023/02/25 11:44:52;;;;;;;1.33;0.90;;;;;;;;;;5027018;28;20041;-77
2023/02/25 11:47:22;;;;;;;1.00;0.90;;;;;;;;;;5013765;28;20036;-76
2023/02/25 11:50:17;;;;;;;1.87;1.00;;;;;;;;;;5030457;28;20047;-76
2023/02/25 11:52:56;;;;;;;7.83;1.20;;;;;;;;;;5031529;28;20044;-76
2023/02/25 11:55:41;;;;;;;3.73;0.80;;;;;;;;;;5012028;28;20034;-76
2023/02/25 11:58:19;;;;;;;1.03;0.93;;;;;;;;;;4995767;28;20132;-76
2023/02/25 12:01:02;;;;;;;1.13;0.87;;;;;;;;;;5030135;28;20036;-76
2023/02/25 12:03:36;;;;;;;1.07;0.97;;;;;;;;;;5031168;28;20108;-76
2023/02/25 12:06:37;;;;;;;0.97;0.90;;;;;;;;;;5032525;28;20036;-74
2023/02/25 12:09:45;;;;;;;3.67;1.10;;;;;;;;;;5016143;28;20056;-75
2023/02/25 12:12:28;;;;;;;1.33;0.80;;;;;;;;;;5032833;28;20040;-77
2023/02/25 12:15:25;;;;;;;1.63;1.17;;;;;;;;;;5033261;28;20068;-78
2023/02/25 12:18:03;;;;;;;3.83;1.60;;;;;;;;;;5032259;28;20063;-77
2023/02/25 12:20:56;;;;;;;2.07;1.03;;;;;;;;;;5034030;28;20037;-76
2023/02/25 12:23:21;;;;;;;1.20;1.10;;;;;;;;;;5035059;28;20033;-76
2023/02/25 12:26:08;;;;;;;1.77;0.97;;;;;;;;;;5035087;28;20032;-76
2023/02/25 12:28:59;;;;;;;6.47;1.13;;;;;;;;;;5042276;28;20029;-75
2023/02/25 12:31:31;;;;;;;0.90;0.90;;;;;;;;;;5048927;28;20068;-76
2023/02/25 12:34:21;;;;;;;1.27;1.17;;;;;;;;;;5034320;28;20065;-77
2023/02/25 12:37:11;;;;;;;2.50;1.27;;;;;;;;;;5030117;28;20029;-77
2023/02/25 12:39:53;;;;;;;2.10;1.17;;;;;;;;;;5014103;28;20037;-75
2023/02/25 12:42:42;;;;;;;1.15;1.00;;;;;;;;;;5030387;28;20710;-75
2023/02/25 12:45:19;;;;;;;2.23;1.07;;;;;;;;;;5030662;28;20045;-75
2023/02/25 12:48:06;;;;;;;2.63;0.90;;;;;;;;;;5013387;28;20027;-76
2023/02/25 12:50:31;;;;;;;1.00;0.77;;;;;;;;;;5013332;28;20033;-75
2023/02/25 12:53:00;;;;;;;2.00;1.30;;;;;;;;;;5029130;28;20036;-76
2023/02/25 12:55:47;;;;;;;1.00;1.00;;;;;;;;;;5029598;28;20061;-76
2023/02/25 12:58:26;;;;;;;2.77;1.17;;;;;;;;;;5032055;28;20108;-76
2023/02/25 13:01:07;;;;;;;2.93;1.30;;;;;;;;;;5011740;28;20072;-77
2023/02/25 13:03:45;;;;;;;3.27;1.10;;;;;;;;;;5019017;28;20034;-78
2023/02/25 13:06:16;;;;;;;2.57;1.20;;;;;;;;;;5028161;28;20079;-75
2023/02/25 13:08:48;;;;;;;1.40;0.85;;;;;;;;;;5046346;28;20048;-76
2023/02/25 13:11:42;;;;;;;1.50;1.38;;;;;;;;;;5041412;28;20025;-75
2023/02/25 13:14:14;;;;;;;4.23;1.30;;;;;;;;;;5026732;28;20037;-77
2023/02/25 13:16:57;;;;;;;1.67;1.10;;;;;;;;;;5033625;28;20100;-76
2023/02/25 13:19:40;;;;;;;1.17;1.07;;;;;;;;;;5013989;28;20083;-77
2023/02/25 13:22:40;;;;;;;2.60;1.20;;;;;;;;;;5029225;28;20031;-75
2023/02/25 13:25:32;;;;;;;0.87;0.70;;;;;;;;;;5012370;28;20514;-75
2023/02/25 13:28:24;;;;;;;1.00;0.90;;;;;;;;;;5031017;28;20017;-77
2023/02/25 13:30:52;;;;;;;1.10;0.80;;;;;;;;;;5030238;28;20021;-75
2023/02/25 13:33:45;;;;;;;3.30;0.80;;;;;;;;;;5012331;28;20116;-75
2023/02/25 13:36:36;;;;;;;5.77;0.93;;;;;;;;;;5028690;28;20036;-76
2023/02/25 13:39:38;;;;;;;1.77;0.83;;;;;;;;;;5012366;28;20044;-76
2023/02/25 13:42:16;;;;;;;0.90;0.90;;;;;;;;;;5012417;28;20021;-76
2023/02/25 13:44:57;;;;;;;0.90;0.90;;;;;;;;;;5012212;28;20427;-76
2023/02/25 13:47:40;;;;;;;1.47;1.10;;;;;;;;;;5029984;28;20025;-75
2023/02/25 13:50:26;;;;;;;4.00;0.90;;;;;;;;;;5030288;28;20048;-76
2023/02/25 13:53:00;;;;;;;1.37;1.27;;;;;;;;;;5011913;28;20025;-76
2023/02/25 13:55:52;;;;;;;1.17;0.80;;;;;;;;;;5011750;28;20510;-75
2023/02/25 13:58:40;;;;;;;2.97;0.93;;;;;;;;;;5011175;28;20060;-75
2023/02/25 14:01:17;;;;;;;5.30;1.37;;;;;;;;;;5012288;28;20124;-76
2023/02/25 14:04:17;;;;;;;1.17;0.90;;;;;;;;;;5012018;28;20036;-77
2023/02/25 14:07:04;;;;;;;1.40;1.20;;;;;;;;;;5011529;28;20482;-76
2023/02/25 14:10:01;;;;;;;1.17;0.90;;;;;;;;;;5011776;28;20171;-76
2023/02/25 14:12:49;;;;;;;1.20;1.10;;;;;;;;;;5028526;28;20087;-75
2023/02/25 14:15:21;;;;;;;0.73;0.73;;;;;;;;;;4970139;28;20049;-75
2023/02/25 14:17:53;;;;;;;1.08;0.77;;;;;;;;;;5015350;28;20037;-76
2023/02/25 14:20:47;;;;;;;1.80;0.77;;;;;;;;;;5031279;28;20025;-76
2023/02/25 14:23:34;;;;;;;0.70;0.70;;;;;;;;;;4929433;28;20032;-76
2023/02/25 14:26:22;;;;;;;1.13;1.00;;;;;;;;;;5031161;28;20029;-76
2023/02/25 14:29:06;;;;;;;1.40;1.30;;;;;;;;;;5033232;28;20440;-76
2023/02/25 14:31:47;;;;;;;2.57;0.97;;;;;;;;;;5013428;28;20080;-76
2023/02/25 14:34:43;;;;;;;2.05;1.20;;;;;;;;;;4996690;28;20037;-76
2023/02/25 14:37:28;;;;;;;2.83;1.33;;;;;;;;;;5032778;28;20083;-76
2023/02/25 14:39:55;;;;;;;6.50;1.53;;;;;;;;;;5033117;28;20373;-76
2023/02/25 14:42:57;;;;;;;1.70;1.30;;;;;;;;;;5033685;28;20374;-75
2023/02/25 14:45:50;;;;;;;1.08;1.00;;;;;;;;;;5032629;28;20759;-75
2023/02/25 14:48:33;;;;;;;5.50;1.40;;;;;;;;;;5008485;28;20051;-76
2023/02/25 14:51:20;;;;;;;3.03;1.20;;;;;;;;;;5032282;28;20083;-75
2023/02/25 14:54:11;;;;;;;2.17;1.67;;;;;;;;;;5015005;28;20552;-76
2023/02/25 14:56:57;;;;;;;2.27;1.47;;;;;;;;;;5014985;28;20032;-76
2023/02/25 14:59:59;;;;;;;1.83;1.67;;;;;;;;;;5032195;28;20116;-76
2023/02/25 15:02:57;;;;;;;1.17;0.90;;;;;;;;;;5031094;28;20045;-76
2023/02/25 15:06:00;;;;;;;3.13;1.00;;;;;;;;;;5030174;28;20038;-77
2023/02/25 15:08:31;;;;;;;0.87;0.73;;;;;;;;;;5032186;28;20034;-76
2023/02/25 15:11:05;;;;;;;1.55;0.80;;;;;;;;;;5014333;28;20037;-76
2023/02/25 15:13:39;;;;;;;1.20;0.70;;;;;;;;;;5032272;28;20086;-76
2023/02/25 15:16:27;;;;;;;2.53;0.97;;;;;;;;;;5032095;28;20045;-77
2023/02/25 15:19:30;;;;;;;0.80;0.60;;;;;;;;;;5031896;28;20079;-75